KCEF/CEF METAR and TAF weather

Enter ICAO airport designator
Station Type Date Time Source
KCEF METAR 2020/12/01 19:56 UTC NOAA

KCEF 011956Z 20012G17KT 10SM BKN055 BKN080 12/00 A2947 RMK AO2A PK WND 20027/17 SLP985 WND DATA ESTMD T01201005


Station Type Date Time Source
KCEF Decoded METAR 2020/12/01 19:56 UTC NOAA

Chicopee Falls / Westover Air Force Base, MA, United States (KCEF) 42-12N 072-32W 75M
Dec 01, 2020 - 02:56 PM EST / 2020.12.01 1956 UTC
Wind: from the SSW (200 degrees) at 14 MPH (12 KT) gusting to 20 MPH (17 KT):0
Visibility: 10 mile(s):0
Sky conditions: mostly cloudy
Temperature: 53.6 F (12.0 C)
Dew Point: 31.1 F (-0.5 C)
Relative Humidity: 42%
Pressure (altimeter): 29.47 in. Hg (997 hPa)
ob: KCEF 011956Z 20012G17KT 10SM BKN055 BKN080 12/00 A2947 RMK AO2A PK WND 20027/17 SLP985 WND DATA ESTMD T01201005
cycle: 20

Station Type Date Time Source
KCEF TAF 2020/12/01 14:07 UTC NOAA

TAF KCEF 011400Z 0114/0220 22012KT 9999 FEW010 SCT045 BKN055 620553 510002 540208 QNH2948INS
TEMPO 0115/0117 -SHRA
BECMG 0116/0117 20010G15KT 9999 BKN050 620503 510002 540208 QNH2948INS
TEMPO 0117/0122 21015G25KT 520002 540208
BECMG 0122/0123 20009KT 9999 SCT020 BKN040 510002 540203 QNH2959INS
BECMG 0207/0208 21009KT 9999 BKN025 510105 520604 QNH2976INS
BECMG 0215/0216 24012G18KT 9999 BKN030 620307 510004 QNH2980INS TX15/0115Z TNM01/0212Z

Example: see airport list